Robinson, North Dakota
Current Conditions -  °F | °C
As of 12:35 PM on Wednesday 26 Nov 2014 (Local Time) from K46D Reporting Station
Broken Clouds Broken Clouds  
Wind Chill: -11°   Ceiling: 8000
Heat Index:   Visibility: 10mi
Dew Point: -2°   Wind: 7mph
Humidity: 85%   Direction: 350°N
Pressure: 30.4"   Gusts: NA
Location:  47.14°N, 99.78°W
Report Text: K46D 261835Z AUTO 35006KT 10SM BKN080 M17/M19 A3040 RMK AO2
Loading
Personal Weather Stations






























Interactive Weather Map New forecast layout! Learn more

10-Day Weather Forecast

Advertisements
Track Severe Weather on mobile